Humidity-temperature Sensor

Selected Measurement Type: Air Temperature

 
Air Temperature [°C]     6 entries per hour
Showing data from 1/27/2021 (00:00:00 Z) to 1/24/2021 (00:01:00 Z)
Previous Next [ Day | 3-Days | 7-Days ]
First Last
Prev [ Day | 3-Days | 7-Days ] Next
First Last

Start Time:     :
End Time:     :     
Time (in GMT) :00 :50 :40 :30 :20 :10
Previous Next [ Day | 3-Days | 7-Days ]
First Last
Prev [ Day | 3-Days | 7-Days ] Next
First Last


123 => good data
MM => data is determined as missing
-- => data not received/configured
Back to Top Back to Top
1/27/2021 00:00 to 23:10 25.31 25.22 24.99 24.84 24.42 24.38
1/26/2021 23:00 to 22:10 25.15 25.70 25.61 25.43 25.50 25.36
1/26/2021 22:00 to 21:10 25.16 25.28 25.35 25.26 25.52 25.40
1/26/2021 21:00 to 20:10 25.42 25.32 25.25 25.30 25.27 25.35
1/26/2021 20:00 to 19:10 25.36 25.36 25.12 24.64 24.66 24.21
1/26/2021 19:00 to 18:10 24.10 24.23 24.28 25.19 25.33 25.23
1/26/2021 18:00 to 17:10 25.26 24.98 25.16 25.55 25.65 25.56
1/26/2021 17:00 to 16:10 25.63 25.54 25.48 25.62 25.60 25.71
1/26/2021 16:00 to 15:10 25.60 25.42 25.66 25.51 25.50 25.30
1/26/2021 15:00 to 14:10 25.38 25.33 25.32 25.26 25.28 25.33
1/26/2021 14:00 to 13:10 25.32 25.34 25.11 25.15 25.07 25.07
1/26/2021 13:00 to 12:10 25.00 25.12 25.08 25.04 25.03 24.92
1/26/2021 12:00 to 11:10 25.03 25.00 24.97 24.94 25.05 24.95
1/26/2021 11:00 to 10:10 25.10 24.97 25.19 25.14 24.99 25.05
1/26/2021 10:00 to 9:10 25.01 25.00 25.08 24.99 24.93 25.12
1/26/2021 09:00 to 8:10 25.05 25.21 25.12 25.08 25.03 25.04
1/26/2021 08:00 to 7:10 25.04 25.05 25.07 25.07 25.06 25.07
1/26/2021 07:00 to 6:10 25.06 25.16 25.12 25.15 25.19 25.11
1/26/2021 06:00 to 5:10 25.14 25.17 25.20 25.18 25.21 25.13
1/26/2021 05:00 to 4:10 25.16 25.13 25.14 25.16 25.23 25.26
1/26/2021 04:00 to 3:10 25.21 25.29 25.29 25.19 25.26 25.18
1/26/2021 03:00 to 2:10 25.29 25.19 25.23 25.26 25.42 25.14
1/26/2021 02:00 to 1:10 25.24 25.30 25.24 25.26 25.24 25.21
1/26/2021 01:00 to 0:10 25.25 25.21 25.26 25.29 25.30 25.29
1/26/2021 00:00 to 23:10 25.31 25.35 25.27 25.39 25.40 25.39
1/25/2021 23:00 to 22:10 25.32 25.33 25.21 25.18 25.34 25.23
1/25/2021 22:00 to 21:10 25.20 24.91 25.00 24.64 24.42 24.40
1/25/2021 21:00 to 20:10 24.14 23.99 24.35 24.75 25.32 25.46
1/25/2021 20:00 to 19:10 25.53 25.60 25.69 25.72 25.64 25.60
1/25/2021 19:00 to 18:10 25.62 25.74 25.61 25.61 25.47 25.47
1/25/2021 18:00 to 17:10 25.47 25.52 25.56 25.54 25.59 25.55
1/25/2021 17:00 to 16:10 25.65 25.85 25.50 25.24 24.70 24.41
1/25/2021 16:00 to 15:10 24.25 24.52 25.21 25.42 25.33 25.31
1/25/2021 15:00 to 14:10 25.23 25.23 25.32 25.25 25.26 25.19
1/25/2021 14:00 to 13:10 25.30 25.15 25.22 25.31 25.26 25.22
1/25/2021 13:00 to 12:10 25.18 25.09 25.22 25.16 25.13 25.11
1/25/2021 12:00 to 11:10 25.04 25.08 25.06 24.95 25.15 25.01
1/25/2021 11:00 to 10:10 25.01 25.06 25.13 25.06 25.00 25.12
1/25/2021 10:00 to 9:10 25.02 25.01 25.06 25.15 24.93 25.06
1/25/2021 09:00 to 8:10 25.14 25.00 25.07 24.98 25.05 25.06
1/25/2021 08:00 to 7:10 24.98 25.00 24.97 24.94 24.91 24.90
1/25/2021 07:00 to 6:10 24.92 24.94 24.89 24.93 24.81 24.75
1/25/2021 06:00 to 5:10 24.71 24.74 24.64 24.32 24.49 24.39
1/25/2021 05:00 to 4:10 23.98 23.88 23.96 24.07 24.34 24.38
1/25/2021 04:00 to 3:10 24.54 24.96 25.28 25.19 25.17 25.08
1/25/2021 03:00 to 2:10 24.87 24.59 24.52 24.90 25.49 25.45
1/25/2021 02:00 to 1:10 25.45 25.49 25.37 25.47 25.49 25.42
1/25/2021 01:00 to 0:10 25.44 25.47 25.47 25.47 25.53 25.45
1/25/2021 00:00 to 23:10 25.53 25.51 25.69 25.54 25.65 25.51
1/24/2021 23:00 to 22:10 25.55 25.55 25.71 25.52 25.59 25.59
1/24/2021 22:00 to 21:10 25.56 25.51 25.52 25.44 25.44 25.61
1/24/2021 21:00 to 20:10 25.42 25.39 25.48 25.50 25.42 25.47
1/24/2021 20:00 to 19:10 25.35 25.50 25.43 25.48 25.41 25.42
1/24/2021 19:00 to 18:10 25.35 25.37 25.36 25.36 25.30 25.33
1/24/2021 18:00 to 17:10 25.38 25.28 25.46 25.54 25.70 25.74
1/24/2021 17:00 to 16:10 25.70 25.74 25.85 25.88 25.75 26.05
1/24/2021 16:00 to 15:10 25.86 25.94 25.84 25.40 25.21 25.37
1/24/2021 15:00 to 14:10 25.18 25.00 25.06 25.02 24.97 24.94
1/24/2021 14:00 to 13:10 25.27 25.25 25.20 25.10 24.97 24.93
1/24/2021 13:00 to 12:10 24.97 24.98 24.99 25.05 24.96 24.95
1/24/2021 12:00 to 11:10 24.97 24.98 25.06 24.96 24.98 25.04
1/24/2021 11:00 to 10:10 24.95 25.03 24.91 24.98 24.99 24.89
1/24/2021 10:00 to 9:10 24.84 24.97 24.96 24.93 25.00 24.93
1/24/2021 09:00 to 8:10 24.93 24.99 24.87 24.99 25.03 24.99
1/24/2021 08:00 to 7:10 25.03 25.11 25.07 25.04 25.09 25.06
1/24/2021 07:00 to 6:10 25.11 25.04 25.11 25.19 25.16 25.08
1/24/2021 06:00 to 5:10 25.17 25.25 25.17 25.10 25.09 25.12
1/24/2021 05:00 to 4:10 25.18 25.14 25.20 25.33 25.29 25.27
1/24/2021 04:00 to 3:10 25.33 25.36 25.23 25.35 25.24 25.38
1/24/2021 03:00 to 2:10 25.34 25.27 25.41 25.34 25.36 25.26
1/24/2021 02:00 to 1:10 25.33 25.40 25.40 25.36 25.31 25.30
1/24/2021 01:00 to 0:10 25.25 25.28 25.33 25.21 25.34 25.47